Time;durP1;ratioP1;P1;durP2;ratioP2;P2;SDS_P1;SDS_P2;PMS_P1;PMS_P2;Temp;Humidity;BMP_temperature;BMP_pressure;BME280_temperature;BME280_humidity;BME280_pressure;Samples;Min_cycle;Max_cycle;Signal;HPM_P1;HPM_P2
2022/04/25 00:01:10;;;;;;;12.55;7.90;;;;;;;;;;4992319;28;20213;-65
2022/04/25 00:03:36;;;;;;;13.25;7.53;;;;;;;;;;4993275;28;20209;-65
2022/04/25 00:06:01;;;;;;;12.10;7.03;;;;;;;;;;4992002;28;20209;-64
2022/04/25 00:08:26;;;;;;;13.02;8.30;;;;;;;;;;4993223;28;20203;-65
2022/04/25 00:10:51;;;;;;;14.55;8.30;;;;;;;;;;4992856;28;20212;-66
2022/04/25 00:13:17;;;;;;;12.20;8.15;;;;;;;;;;4991966;28;20209;-65
2022/04/25 00:15:42;;;;;;;13.77;8.45;;;;;;;;;;4992830;28;20224;-66
2022/04/25 00:18:07;;;;;;;13.00;7.45;;;;;;;;;;4992538;28;20208;-65
2022/04/25 00:20:33;;;;;;;15.25;8.02;;;;;;;;;;4992149;28;20220;-66
2022/04/25 00:23:00;;;;;;;11.93;7.63;;;;;;;;;;4993242;28;20237;-65
2022/04/25 00:25:26;;;;;;;15.10;8.10;;;;;;;;;;4992042;28;20220;-66
2022/04/25 00:27:51;;;;;;;13.32;8.32;;;;;;;;;;4996376;28;20205;-65
2022/04/25 00:30:16;;;;;;;13.48;7.95;;;;;;;;;;4996489;28;20983;-66
2022/04/25 00:32:42;;;;;;;10.60;7.90;;;;;;;;;;4996165;28;20209;-66
2022/04/25 00:35:07;;;;;;;13.68;8.18;;;;;;;;;;4996396;28;20692;-65
2022/04/25 00:37:32;;;;;;;13.40;8.32;;;;;;;;;;4996795;28;20213;-65
2022/04/25 00:39:58;;;;;;;11.32;7.78;;;;;;;;;;4996143;28;20204;-65
2022/04/25 00:42:23;;;;;;;13.43;8.35;;;;;;;;;;4978600;28;20376;-65
2022/04/25 00:44:48;;;;;;;12.00;7.88;;;;;;;;;;4989416;28;20230;-65
2022/04/25 00:47:14;;;;;;;11.35;7.88;;;;;;;;;;4966282;28;20225;-65
2022/04/25 00:49:39;;;;;;;14.68;9.25;;;;;;;;;;4964928;28;20444;-65
2022/04/25 00:52:04;;;;;;;15.25;9.20;;;;;;;;;;4977860;28;20217;-65
2022/04/25 00:54:31;;;;;;;17.10;8.85;;;;;;;;;;4978288;28;20221;-65
2022/04/25 00:56:57;;;;;;;12.77;9.13;;;;;;;;;;4978033;28;20326;-65
2022/04/25 00:59:23;;;;;;;13.25;8.50;;;;;;;;;;4976103;28;20316;-65
2022/04/25 01:01:51;;;;;;;11.50;8.48;;;;;;;;;;4989854;28;20221;-65
2022/04/25 01:04:16;;;;;;;14.35;8.10;;;;;;;;;;4999916;28;20217;-65
2022/04/25 01:06:42;;;;;;;12.07;7.72;;;;;;;;;;4971560;28;20233;-64
2022/04/25 01:09:07;;;;;;;13.30;7.97;;;;;;;;;;4985004;28;20215;-64
2022/04/25 01:11:32;;;;;;;14.95;8.32;;;;;;;;;;4986022;28;20244;-65
2022/04/25 01:14:08;;;;;;;13.65;8.38;;;;;;;;;;4978649;28;20212;-65
2022/04/25 01:16:34;;;;;;;16.52;9.43;;;;;;;;;;4966472;28;20232;-65
2022/04/25 01:18:59;;;;;;;16.17;9.15;;;;;;;;;;4959738;28;20218;-65
2022/04/25 01:21:24;;;;;;;13.07;8.75;;;;;;;;;;4969321;28;20356;-65
2022/04/25 01:29:17;;;;;;;13.20;8.13;;;;;;;;;;4984376;28;20228;-65
2022/04/25 01:31:42;;;;;;;14.30;9.20;;;;;;;;;;5000495;28;20217;-65
2022/04/25 01:34:08;;;;;;;14.32;8.85;;;;;;;;;;4970656;28;20249;-64
2022/04/25 01:36:33;;;;;;;15.68;8.93;;;;;;;;;;4958791;28;20209;-65
2022/04/25 01:38:59;;;;;;;15.20;8.57;;;;;;;;;;4963536;28;20221;-65
2022/04/25 01:41:24;;;;;;;14.45;9.10;;;;;;;;;;4967088;28;20213;-65
2022/04/25 01:43:49;;;;;;;12.95;8.82;;;;;;;;;;4982854;28;20300;-65
2022/04/25 01:46:15;;;;;;;13.75;8.82;;;;;;;;;;4984044;28;20209;-65
2022/04/25 01:48:40;;;;;;;13.45;8.93;;;;;;;;;;4965950;28;20601;-65
2022/04/25 01:51:05;;;;;;;12.98;8.45;;;;;;;;;;4977652;28;20228;-65
2022/04/25 01:53:30;;;;;;;16.75;9.20;;;;;;;;;;4985358;28;20236;-65
2022/04/25 01:55:56;;;;;;;14.05;8.55;;;;;;;;;;4984848;28;20796;-65
2022/04/25 01:58:21;;;;;;;14.13;8.63;;;;;;;;;;4966344;28;20220;-65
2022/04/25 02:00:46;;;;;;;13.93;9.55;;;;;;;;;;4958108;28;20681;-65
2022/04/25 02:03:12;;;;;;;15.10;9.13;;;;;;;;;;4957691;28;20226;-64
2022/04/25 02:05:37;;;;;;;12.40;8.82;;;;;;;;;;4961308;28;20237;-65
2022/04/25 02:08:02;;;;;;;16.52;9.55;;;;;;;;;;4965686;28;20218;-64
2022/04/25 02:10:28;;;;;;;15.52;9.80;;;;;;;;;;4965842;28;20217;-65
2022/04/25 02:12:53;;;;;;;13.25;8.90;;;;;;;;;;4965228;28;20301;-65
2022/04/25 02:15:18;;;;;;;15.43;10.20;;;;;;;;;;4965443;28;20256;-65
2022/04/25 02:17:44;;;;;;;16.23;9.73;;;;;;;;;;4965496;28;20213;-65
2022/04/25 02:20:10;;;;;;;18.38;10.93;;;;;;;;;;4965422;28;20216;-65
2022/04/25 02:22:36;;;;;;;14.13;9.20;;;;;;;;;;4977018;28;20227;-65
2022/04/25 02:25:01;;;;;;;16.50;9.98;;;;;;;;;;4976040;28;20239;-64
2022/04/25 02:27:26;;;;;;;17.42;10.57;;;;;;;;;;4977949;28;20228;-65
2022/04/25 02:29:57;;;;;;;15.52;10.40;;;;;;;;;;4968293;28;20221;-66
2022/04/25 02:32:23;;;;;;;14.00;10.00;;;;;;;;;;4965690;28;20573;-65
2022/04/25 02:34:50;;;;;;;17.38;10.52;;;;;;;;;;4965527;28;20229;-65
2022/04/25 02:37:15;;;;;;;16.08;10.85;;;;;;;;;;4983550;28;20217;-65
2022/04/25 02:39:41;;;;;;;14.52;10.32;;;;;;;;;;4983784;28;20200;-65
2022/04/25 02:42:06;;;;;;;15.00;10.77;;;;;;;;;;4983591;28;20224;-65
2022/04/25 02:44:31;;;;;;;19.70;11.35;;;;;;;;;;4977288;28;20216;-65
2022/04/25 02:46:56;;;;;;;16.13;10.32;;;;;;;;;;4975460;28;20616;-65
2022/04/25 02:49:22;;;;;;;17.13;10.38;;;;;;;;;;4975945;28;20232;-65
2022/04/25 02:51:47;;;;;;;16.20;10.98;;;;;;;;;;4963740;28;20550;-65
2022/04/25 02:54:12;;;;;;;16.80;10.60;;;;;;;;;;4964012;28;20220;-65
2022/04/25 02:56:37;;;;;;;16.92;11.18;;;;;;;;;;4964861;28;20704;-65
2022/04/25 02:59:03;;;;;;;16.23;11.45;;;;;;;;;;4964900;28;20205;-64
2022/04/25 03:01:28;;;;;;;17.65;10.43;;;;;;;;;;4968329;28;20209;-65
2022/04/25 03:03:53;;;;;;;14.43;10.68;;;;;;;;;;4969523;28;20224;-65
2022/04/25 03:06:19;;;;;;;14.30;10.40;;;;;;;;;;4979036;28;20224;-65
2022/04/25 03:08:44;;;;;;;17.73;11.05;;;;;;;;;;4974899;28;20481;-65
2022/04/25 03:11:09;;;;;;;15.90;10.93;;;;;;;;;;4974462;28;20213;-65
2022/04/25 03:13:35;;;;;;;16.98;10.38;;;;;;;;;;4978056;28;20225;-65
2022/04/25 03:16:01;;;;;;;17.10;10.60;;;;;;;;;;4983097;28;20299;-65
2022/04/25 03:18:27;;;;;;;18.50;11.70;;;;;;;;;;4983363;28;20248;-65
2022/04/25 03:20:53;;;;;;;18.70;11.40;;;;;;;;;;4983531;28;20221;-65
2022/04/25 03:23:18;;;;;;;16.77;11.95;;;;;;;;;;4982571;28;20696;-65
2022/04/25 03:25:44;;;;;;;17.10;10.75;;;;;;;;;;4968923;28;20213;-65
2022/04/25 03:28:09;;;;;;;17.88;11.52;;;;;;;;;;4981116;28;20877;-65
2022/04/25 03:30:35;;;;;;;18.88;10.48;;;;;;;;;;4975384;28;20217;-65
2022/04/25 03:33:00;;;;;;;16.42;11.43;;;;;;;;;;4971056;28;20214;-65
2022/04/25 03:35:25;;;;;;;17.25;10.38;;;;;;;;;;4956484;28;20226;-65
2022/04/25 03:37:51;;;;;;;18.30;11.13;;;;;;;;;;4983155;28;20841;-65
2022/04/25 03:40:16;;;;;;;17.08;11.07;;;;;;;;;;4982665;28;20229;-65
2022/04/25 03:42:43;;;;;;;15.07;10.57;;;;;;;;;;4982913;28;20685;-65
2022/04/25 03:45:09;;;;;;;16.92;11.48;;;;;;;;;;4982706;28;20346;-65
2022/04/25 03:47:36;;;;;;;18.25;11.85;;;;;;;;;;4983357;28;20606;-65
2022/04/25 03:50:01;;;;;;;17.98;11.80;;;;;;;;;;4976710;28;20253;-65
2022/04/25 03:52:27;;;;;;;18.88;11.48;;;;;;;;;;4957314;28;20870;-64
2022/04/25 03:57:37;;;;;;;20.55;12.75;;;;;;;;;;4967368;28;20316;-65
2022/04/25 04:00:03;;;;;;;18.92;12.68;;;;;;;;;;4972802;28;20231;-64
2022/04/25 04:02:28;;;;;;;17.73;11.35;;;;;;;;;;4967134;28;20221;-64
2022/04/25 04:04:53;;;;;;;22.63;13.00;;;;;;;;;;4963239;28;20221;-65
2022/04/25 04:07:18;;;;;;;19.45;12.68;;;;;;;;;;4967472;28;20572;-65
2022/04/25 04:09:45;;;;;;;19.92;12.38;;;;;;;;;;4982762;28;20239;-64
2022/04/25 04:12:11;;;;;;;18.88;12.25;;;;;;;;;;4981934;28;20299;-65
2022/04/25 04:14:36;;;;;;;18.85;13.02;;;;;;;;;;4978142;28;20494;-66
2022/04/25 04:17:02;;;;;;;21.77;13.57;;;;;;;;;;4972573;28;20217;-64
2022/04/25 04:19:28;;;;;;;18.42;12.85;;;;;;;;;;4955297;28;20225;-65
2022/04/25 04:21:53;;;;;;;19.33;13.30;;;;;;;;;;4959890;28;20225;-65
2022/04/25 04:24:18;;;;;;;19.90;13.05;;;;;;;;;;4963050;28;20646;-66
2022/04/25 04:26:44;;;;;;;20.48;13.45;;;;;;;;;;4963334;28;20272;-65
2022/04/25 04:29:09;;;;;;;21.85;14.73;;;;;;;;;;4963748;28;20619;-65
2022/04/25 04:31:34;;;;;;;22.77;14.82;;;;;;;;;;4962905;28;20209;-65
2022/04/25 04:33:59;;;;;;;18.63;13.75;;;;;;;;;;4964322;28;20217;-65
2022/04/25 04:36:26;;;;;;;20.75;14.40;;;;;;;;;;4960960;28;20225;-65
2022/04/25 04:38:51;;;;;;;21.50;14.15;;;;;;;;;;4962072;28;20267;-64
2022/04/25 04:41:16;;;;;;;19.20;13.18;;;;;;;;;;4973805;28;20213;-65
2022/04/25 04:43:42;;;;;;;22.73;14.13;;;;;;;;;;4976498;28;20221;-65
2022/04/25 04:46:07;;;;;;;19.95;13.73;;;;;;;;;;4981534;28;20572;-65
2022/04/25 04:48:32;;;;;;;19.42;13.55;;;;;;;;;;4978164;28;20671;-65
2022/04/25 04:50:58;;;;;;;17.08;12.23;;;;;;;;;;4969536;28;20210;-65
2022/04/25 04:53:23;;;;;;;20.98;14.30;;;;;;;;;;4962546;28;20680;-64
2022/04/25 04:55:49;;;;;;;20.35;14.63;;;;;;;;;;4963301;28;20328;-64
2022/04/25 04:58:14;;;;;;;21.70;15.13;;;;;;;;;;4972819;28;20303;-64
2022/04/25 05:00:39;;;;;;;19.90;14.88;;;;;;;;;;4974741;28;20220;-65
2022/04/25 05:03:04;;;;;;;20.10;15.38;;;;;;;;;;4955214;28;20214;-65
2022/04/25 05:05:30;;;;;;;21.00;14.82;;;;;;;;;;4975095;28;20233;-65
2022/04/25 05:07:55;;;;;;;21.23;15.18;;;;;;;;;;4979341;28;20217;-65
2022/04/25 05:10:20;;;;;;;19.50;14.13;;;;;;;;;;4982115;28;20209;-64
2022/04/25 05:12:49;;;;;;;22.95;16.00;;;;;;;;;;4983642;28;20631;-65
2022/04/25 05:15:14;;;;;;;22.23;15.30;;;;;;;;;;4984629;28;20237;-64
2022/04/25 05:17:41;;;;;;;23.90;16.90;;;;;;;;;;4986116;28;20209;-65
2022/04/25 05:20:06;;;;;;;22.58;16.63;;;;;;;;;;4985233;28;20224;-64
2022/04/25 05:22:32;;;;;;;23.20;17.05;;;;;;;;;;4981547;28;20217;-64
2022/04/25 05:24:58;;;;;;;22.45;16.50;;;;;;;;;;4977890;28;20209;-65
2022/04/25 05:27:23;;;;;;;21.77;16.20;;;;;;;;;;4977396;28;20221;-65
2022/04/25 05:29:49;;;;;;;26.15;17.67;;;;;;;;;;4981211;28;20330;-64
2022/04/25 05:32:14;;;;;;;25.45;16.80;;;;;;;;;;4984784;28;20590;-65
2022/04/25 05:34:39;;;;;;;24.80;17.15;;;;;;;;;;4967805;28;20218;-64
2022/04/25 05:37:04;;;;;;;23.88;17.00;;;;;;;;;;4965211;28;20709;-64
2022/04/25 05:39:30;;;;;;;25.65;17.50;;;;;;;;;;4966464;28;20324;-65
2022/04/25 05:41:55;;;;;;;27.85;19.13;;;;;;;;;;4972685;28;20416;-65
2022/04/25 05:44:20;;;;;;;24.92;17.63;;;;;;;;;;4964977;28;20272;-70
2022/04/25 05:46:46;;;;;;;26.33;19.40;;;;;;;;;;4958288;28;20206;-66
2022/04/25 05:51:59;;;;;;;27.60;22.00;;;;;;;;;;4958978;28;20260;-64
2022/04/25 05:54:24;;;;;;;28.35;20.73;;;;;;;;;;4984329;28;20279;-65
2022/04/25 05:56:50;;;;;;;31.58;23.20;;;;;;;;;;4967490;28;20563;-64
2022/04/25 05:59:15;;;;;;;32.30;23.60;;;;;;;;;;4965497;28;20312;-64
2022/04/25 06:01:40;;;;;;;33.38;24.02;;;;;;;;;;4966830;28;20242;-64
2022/04/25 06:04:05;;;;;;;33.88;24.90;;;;;;;;;;4965600;28;20224;-63
2022/04/25 06:06:31;;;;;;;32.13;24.50;;;;;;;;;;4966812;28;20740;-63
2022/04/25 06:08:56;;;;;;;31.15;25.35;;;;;;;;;;4958708;28;20224;-63
2022/04/25 06:11:22;;;;;;;32.90;25.02;;;;;;;;;;4957451;28;20240;-63
2022/04/25 06:13:50;;;;;;;33.17;25.15;;;;;;;;;;4958678;28;20210;-64
2022/04/25 06:16:16;;;;;;;38.15;26.13;;;;;;;;;;4973185;28;20221;-62
2022/04/25 06:18:41;;;;;;;34.95;26.83;;;;;;;;;;4967418;28;20224;-62
2022/04/25 06:21:06;;;;;;;36.08;27.38;;;;;;;;;;4965795;28;20214;-62
2022/04/25 06:23:32;;;;;;;35.83;27.52;;;;;;;;;;4965965;28;20355;-62
2022/04/25 06:25:57;;;;;;;38.35;27.98;;;;;;;;;;4966105;28;20629;-62
2022/04/25 06:28:24;;;;;;;38.72;27.77;;;;;;;;;;4965859;28;20401;-62
2022/04/25 06:30:50;;;;;;;37.70;27.67;;;;;;;;;;4963719;28;20265;-62
2022/04/25 06:33:15;;;;;;;38.05;27.92;;;;;;;;;;4958440;28;20217;-62
2022/04/25 06:35:40;;;;;;;39.35;29.55;;;;;;;;;;4958819;28;20345;-62
2022/04/25 06:38:06;;;;;;;41.75;30.23;;;;;;;;;;4961548;28;20283;-61
2022/04/25 06:40:31;;;;;;;38.58;27.42;;;;;;;;;;4966533;28;20210;-61
2022/04/25 06:42:56;;;;;;;39.92;30.20;;;;;;;;;;4966294;28;20218;-61
2022/04/25 06:45:22;;;;;;;42.83;30.40;;;;;;;;;;4966108;28;21000;-60
2022/04/25 06:47:47;;;;;;;41.75;29.58;;;;;;;;;;4966390;28;20293;-60
2022/04/25 06:50:12;;;;;;;44.50;30.45;;;;;;;;;;4965349;28;20209;-60
2022/04/25 06:52:38;;;;;;;39.05;28.83;;;;;;;;;;4963075;28;20732;-61
2022/04/25 06:55:04;;;;;;;38.85;29.00;;;;;;;;;;4959891;28;20759;-61
2022/04/25 06:57:30;;;;;;;38.67;25.80;;;;;;;;;;4957601;28;20313;-61
2022/04/25 06:59:55;;;;;;;39.10;26.80;;;;;;;;;;4959466;28;20633;-61
2022/04/25 07:02:20;;;;;;;36.75;25.55;;;;;;;;;;4987142;28;20675;-60
2022/04/25 07:04:46;;;;;;;35.90;25.15;;;;;;;;;;4993329;28;20707;-61
2022/04/25 07:07:11;;;;;;;37.35;25.17;;;;;;;;;;4992779;28;20209;-60
2022/04/25 07:09:36;;;;;;;40.85;25.90;;;;;;;;;;4993204;28;20215;-60
2022/04/25 07:12:02;;;;;;;61.45;41.38;;;;;;;;;;4993021;28;20258;-61
2022/04/25 07:14:28;;;;;;;48.50;37.53;;;;;;;;;;4992400;28;20351;-61
2022/04/25 07:16:56;;;;;;;45.20;33.53;;;;;;;;;;4993245;28;20223;-61
2022/04/25 07:19:22;;;;;;;38.38;26.95;;;;;;;;;;4992599;28;20213;-61
2022/04/25 07:29:58;;;;;;;41.30;26.90;;;;;;;;;;4992555;28;20216;-61
2022/04/25 07:32:24;;;;;;;41.15;27.67;;;;;;;;;;4993121;28;20205;-61
2022/04/25 07:34:49;;;;;;;41.00;27.35;;;;;;;;;;5007545;28;20263;-61
2022/04/25 07:37:15;;;;;;;42.75;29.05;;;;;;;;;;5012165;28;20295;-61
2022/04/25 07:39:41;;;;;;;37.60;25.58;;;;;;;;;;5012891;28;20270;-61
2022/04/25 07:42:06;;;;;;;39.58;28.05;;;;;;;;;;5011848;28;20200;-61
2022/04/25 07:44:31;;;;;;;38.42;25.45;;;;;;;;;;5013123;28;20216;-61
2022/04/25 07:46:58;;;;;;;40.10;28.52;;;;;;;;;;5012965;28;20672;-61
2022/04/25 07:49:23;;;;;;;38.13;26.00;;;;;;;;;;5011353;28;20212;-61
2022/04/25 07:51:48;;;;;;;38.13;24.17;;;;;;;;;;4993342;28;20209;-61
2022/04/25 07:54:14;;;;;;;44.40;29.33;;;;;;;;;;4992841;28;20632;-61
2022/04/25 07:56:40;;;;;;;39.25;27.80;;;;;;;;;;4991781;28;20227;-61
2022/04/25 07:59:05;;;;;;;40.47;28.48;;;;;;;;;;4992628;28;20213;-60
2022/04/25 08:01:31;;;;;;;35.63;25.77;;;;;;;;;;4992840;28;20217;-61
2022/04/25 08:03:56;;;;;;;38.67;26.85;;;;;;;;;;4992548;28;20268;-61
2022/04/25 08:06:22;;;;;;;40.83;26.88;;;;;;;;;;4992396;28;20219;-61
2022/04/25 08:08:48;;;;;;;41.28;26.08;;;;;;;;;;4992966;28;20580;-61
2022/04/25 08:11:13;;;;;;;44.22;27.88;;;;;;;;;;4991268;28;20304;-61
2022/04/25 08:19:18;;;;;;;41.38;28.27;;;;;;;;;;4992474;28;20217;-61
2022/04/25 08:21:43;;;;;;;43.17;27.90;;;;;;;;;;4992735;28;20222;-62
2022/04/25 08:24:09;;;;;;;40.55;27.83;;;;;;;;;;4991961;28;20205;-61
2022/04/25 08:26:34;;;;;;;39.85;26.98;;;;;;;;;;4992709;28;20213;-61
2022/04/25 08:29:00;;;;;;;36.65;26.33;;;;;;;;;;4993067;28;20922;-62
2022/04/25 08:31:25;;;;;;;40.42;27.65;;;;;;;;;;4991626;28;20217;-61
2022/04/25 08:33:51;;;;;;;81.90;47.42;;;;;;;;;;4992803;28;20307;-62
2022/04/25 08:36:18;;;;;;;46.95;30.33;;;;;;;;;;4992273;28;20708;-62
2022/04/25 08:38:43;;;;;;;38.70;26.48;;;;;;;;;;4992077;28;20212;-62
2022/04/25 08:41:10;;;;;;;39.50;26.27;;;;;;;;;;4992190;28;20220;-61
2022/04/25 08:43:35;;;;;;;39.20;26.02;;;;;;;;;;4992876;28;20344;-62
2022/04/25 08:46:01;;;;;;;39.55;27.45;;;;;;;;;;4991633;28;20304;-61
2022/04/25 08:48:26;;;;;;;47.53;27.65;;;;;;;;;;5010538;28;20695;-62
2022/04/25 08:50:51;;;;;;;42.67;28.40;;;;;;;;;;5011118;28;20220;-64
2022/04/25 08:53:17;;;;;;;42.47;27.33;;;;;;;;;;4993474;28;20263;-61
2022/04/25 08:55:42;;;;;;;41.58;28.25;;;;;;;;;;5011399;28;20228;-61
2022/04/25 08:58:07;;;;;;;39.53;25.98;;;;;;;;;;5005142;28;20209;-61
2022/04/25 09:00:32;;;;;;;43.05;27.70;;;;;;;;;;4991650;28;20201;-61
2022/04/25 09:02:59;;;;;;;36.03;25.67;;;;;;;;;;4994004;28;20275;-61
2022/04/25 09:05:25;;;;;;;40.60;27.08;;;;;;;;;;4976669;28;20217;-62
2022/04/25 09:07:50;;;;;;;40.70;26.52;;;;;;;;;;4995595;28;20612;-61
2022/04/25 09:10:17;;;;;;;35.90;25.48;;;;;;;;;;4994838;28;20209;-61
2022/04/25 09:12:43;;;;;;;56.35;35.97;;;;;;;;;;4995561;28;20301;-61
2022/04/25 09:15:08;;;;;;;41.63;28.23;;;;;;;;;;4995187;28;20652;-61
2022/04/25 09:17:34;;;;;;;74.25;47.30;;;;;;;;;;4996321;28;20225;-61
2022/04/25 09:19:59;;;;;;;58.47;35.55;;;;;;;;;;4994169;28;20271;-61
2022/04/25 09:22:32;;;;;;;58.92;32.53;;;;;;;;;;4995759;28;20249;-61
2022/04/25 09:25:03;;;;;;;56.67;32.75;;;;;;;;;;4996314;28;20255;-61
2022/04/25 09:27:28;;;;;;;39.13;26.05;;;;;;;;;;4994649;28;20301;-61
2022/04/25 09:29:53;;;;;;;43.78;29.02;;;;;;;;;;4995766;28;20237;-61
2022/04/25 09:32:19;;;;;;;39.30;26.05;;;;;;;;;;4995565;28;20209;-61
2022/04/25 09:35:00;;;;;;;40.35;27.27;;;;;;;;;;4995257;28;20292;-61
2022/04/25 09:37:47;;;;;;;40.70;25.52;;;;;;;;;;4994387;28;21094;-61
2022/04/25 09:40:15;;;;;;;35.35;24.05;;;;;;;;;;4994195;28;20284;-61
2022/04/25 09:42:40;;;;;;;40.13;26.27;;;;;;;;;;4994653;28;20303;-61
2022/04/25 09:45:06;;;;;;;41.70;26.83;;;;;;;;;;4995255;28;20628;-61
2022/04/25 09:47:32;;;;;;;46.45;30.13;;;;;;;;;;4995671;28;20213;-61
2022/04/25 09:49:59;;;;;;;59.95;38.25;;;;;;;;;;4994942;28;20576;-62
2022/04/25 09:52:24;;;;;;;62.15;41.72;;;;;;;;;;4995328;28;20224;-61
2022/04/25 09:54:50;;;;;;;38.78;28.48;;;;;;;;;;4995648;28;20308;-62
2022/04/25 09:57:33;;;;;;;36.15;24.50;;;;;;;;;;4993814;28;20237;-61
2022/04/25 09:59:59;;;;;;;39.40;25.90;;;;;;;;;;4994057;28;20208;-61
2022/04/25 10:02:25;;;;;;;38.92;31.23;;;;;;;;;;4994117;28;20209;-62
2022/04/25 10:04:50;;;;;;;36.13;25.38;;;;;;;;;;4995388;28;20586;-61
2022/04/25 10:07:15;;;;;;;43.28;30.15;;;;;;;;;;4994663;28;20213;-62
2022/04/25 10:09:40;;;;;;;43.10;26.13;;;;;;;;;;4990467;28;20549;-62
2022/04/25 10:12:06;;;;;;;89.05;39.67;;;;;;;;;;4994107;28;20217;-62
2022/04/25 10:14:31;;;;;;;56.47;28.80;;;;;;;;;;4993536;28;20362;-61
2022/04/25 10:16:57;;;;;;;35.17;24.00;;;;;;;;;;4993425;28;20677;-62
2022/04/25 10:19:23;;;;;;;34.70;22.67;;;;;;;;;;5014107;28;20216;-61
2022/04/25 10:21:48;;;;;;;30.33;21.60;;;;;;;;;;5014558;28;20214;-61
2022/04/25 10:24:15;;;;;;;33.70;21.40;;;;;;;;;;5013292;28;20328;-62
2022/04/25 10:26:40;;;;;;;34.92;23.17;;;;;;;;;;5014459;28;20561;-62
2022/04/25 10:29:07;;;;;;;29.70;21.35;;;;;;;;;;5013490;28;20207;-62
2022/04/25 10:31:41;;;;;;;31.27;19.85;;;;;;;;;;5012252;28;20295;-62
2022/04/25 10:34:06;;;;;;;28.85;20.17;;;;;;;;;;5013806;28;20208;-62
2022/04/25 10:36:38;;;;;;;30.27;22.58;;;;;;;;;;5014287;28;20228;-62
2022/04/25 10:39:12;;;;;;;27.80;21.60;;;;;;;;;;5012930;28;20295;-62
2022/04/25 10:44:21;;;;;;;27.25;20.73;;;;;;;;;;5012964;28;20355;-62
2022/04/25 10:47:05;;;;;;;30.67;21.90;;;;;;;;;;5013892;28;20299;-61
2022/04/25 10:49:37;;;;;;;26.98;20.88;;;;;;;;;;5013687;28;20212;-62
2022/04/25 10:52:03;;;;;;;27.45;19.27;;;;;;;;;;5012696;28;20314;-62
2022/04/25 10:54:45;;;;;;;26.42;19.02;;;;;;;;;;5014041;28;20268;-62
2022/04/25 10:57:11;;;;;;;28.30;17.67;;;;;;;;;;5008639;28;20225;-62
2022/04/25 10:59:37;;;;;;;25.55;17.08;;;;;;;;;;4993394;28;20217;-62
2022/04/25 11:02:19;;;;;;;27.83;19.33;;;;;;;;;;4993433;28;20264;-62
2022/04/25 11:04:44;;;;;;;26.65;17.92;;;;;;;;;;4994361;28;20613;-62
2022/04/25 11:07:21;;;;;;;28.27;18.83;;;;;;;;;;4993037;28;20288;-63
2022/04/25 11:09:46;;;;;;;27.00;19.60;;;;;;;;;;4991590;28;20239;-62
2022/04/25 11:12:12;;;;;;;25.25;17.88;;;;;;;;;;4975460;28;20233;-60
2022/04/25 11:14:37;;;;;;;30.08;18.75;;;;;;;;;;4992933;28;20209;-62
2022/04/25 11:17:07;;;;;;;25.88;18.42;;;;;;;;;;4993791;28;20259;-62
2022/04/25 11:19:51;;;;;;;31.88;19.42;;;;;;;;;;4991087;28;20623;-63
2022/04/25 11:22:37;;;;;;;26.95;17.35;;;;;;;;;;4993355;28;20292;-63
2022/04/25 11:25:33;;;;;;;24.65;17.38;;;;;;;;;;4993216;28;20217;-63
2022/04/25 11:28:00;;;;;;;23.00;17.38;;;;;;;;;;4992679;28;20237;-63
2022/04/25 11:30:25;;;;;;;28.55;17.25;;;;;;;;;;4993163;28;20237;-63
2022/04/25 11:32:50;;;;;;;27.17;17.83;;;;;;;;;;4991302;28;20239;-62
2022/04/25 11:35:16;;;;;;;25.65;17.15;;;;;;;;;;4988285;28;20264;-62
2022/04/25 11:37:41;;;;;;;25.50;16.73;;;;;;;;;;4992291;28;20627;-61
2022/04/25 11:40:07;;;;;;;25.02;16.73;;;;;;;;;;4975170;28;20213;-62
2022/04/25 11:42:33;;;;;;;25.48;16.75;;;;;;;;;;4973365;28;20290;-63
2022/04/25 11:44:58;;;;;;;26.98;17.45;;;;;;;;;;4974032;28;20309;-63
2022/04/25 11:47:24;;;;;;;25.33;17.17;;;;;;;;;;4974143;28;20266;-62
2022/04/25 11:49:58;;;;;;;47.42;29.83;;;;;;;;;;4973370;28;20213;-62
2022/04/25 11:52:23;;;;;;;38.95;26.33;;;;;;;;;;4973565;28;20215;-62
2022/04/25 11:54:49;;;;;;;33.75;22.30;;;;;;;;;;4973392;28;20213;-62
2022/04/25 11:57:15;;;;;;;26.08;18.42;;;;;;;;;;4977873;28;20307;-62
2022/04/25 11:59:40;;;;;;;31.67;24.50;;;;;;;;;;4993317;28;20237;-62
2022/04/25 12:02:05;;;;;;;25.13;18.42;;;;;;;;;;4990582;28;20209;-62
2022/04/25 12:04:33;;;;;;;25.63;18.77;;;;;;;;;;4992063;28;20691;-60
2022/04/25 12:07:00;;;;;;;24.60;16.35;;;;;;;;;;4993364;28;20259;-62
2022/04/25 12:17:41;;;;;;;21.70;15.80;;;;;;;;;;4987931;28;20590;-62
2022/04/25 12:20:09;;;;;;;24.88;19.23;;;;;;;;;;4992164;28;20244;-62
2022/04/25 12:22:35;;;;;;;23.50;16.35;;;;;;;;;;4995341;28;20595;-62
2022/04/25 12:25:12;;;;;;;22.42;17.10;;;;;;;;;;4998846;28;20213;-63
2022/04/25 12:27:37;;;;;;;22.25;15.98;;;;;;;;;;4998964;28;20212;-63
2022/04/25 12:30:03;;;;;;;23.83;16.75;;;;;;;;;;4998147;28;21009;-63
2022/04/25 12:32:29;;;;;;;21.98;15.40;;;;;;;;;;5018925;28;20287;-62
2022/04/25 12:34:54;;;;;;;22.10;15.32;;;;;;;;;;5019020;28;20369;-63
2022/04/25 12:37:19;;;;;;;23.05;16.23;;;;;;;;;;5018009;28;20223;-63
2022/04/25 12:40:02;;;;;;;25.23;16.88;;;;;;;;;;5017784;28;20291;-62
2022/04/25 12:42:43;;;;;;;24.00;15.90;;;;;;;;;;5018468;28;20220;-62
2022/04/25 12:45:08;;;;;;;24.10;16.50;;;;;;;;;;5017885;28;20715;-62
2022/04/25 12:47:34;;;;;;;21.42;15.90;;;;;;;;;;5010774;28;20304;-62
2022/04/25 12:50:01;;;;;;;22.98;15.82;;;;;;;;;;4999307;28;20209;-62
2022/04/25 12:52:26;;;;;;;23.13;16.45;;;;;;;;;;4998319;28;20296;-62
2022/04/25 12:54:53;;;;;;;25.58;16.55;;;;;;;;;;4999367;28;20312;-62
2022/04/25 12:57:21;;;;;;;25.15;18.75;;;;;;;;;;4998648;28;20221;-62
2022/04/25 12:59:57;;;;;;;24.13;16.23;;;;;;;;;;4998567;28;20212;-62
2022/04/25 13:02:32;;;;;;;27.02;18.50;;;;;;;;;;4998452;28;20288;-62
2022/04/25 13:04:58;;;;;;;24.13;16.67;;;;;;;;;;4998508;28;20299;-62
2022/04/25 13:07:24;;;;;;;25.38;15.60;;;;;;;;;;4998922;28;20240;-62
2022/04/25 13:09:53;;;;;;;28.23;18.30;;;;;;;;;;4979631;28;20217;-62
2022/04/25 13:12:18;;;;;;;24.05;16.45;;;;;;;;;;4982720;28;20317;-62
2022/04/25 13:14:45;;;;;;;25.25;17.52;;;;;;;;;;4998903;28;20224;-62
2022/04/25 13:17:10;;;;;;;24.20;15.95;;;;;;;;;;5003007;28;20243;-62
2022/04/25 13:19:35;;;;;;;21.50;14.82;;;;;;;;;;5017796;28;20243;-63
2022/04/25 13:22:01;;;;;;;28.05;16.13;;;;;;;;;;5018328;28;20259;-62
2022/04/25 13:24:26;;;;;;;40.78;20.10;;;;;;;;;;5018833;28;20207;-61
2022/04/25 13:26:52;;;;;;;24.42;16.63;;;;;;;;;;5017696;28;20301;-61
2022/04/25 13:29:17;;;;;;;27.40;16.75;;;;;;;;;;5018284;28;20220;-63
2022/04/25 13:31:42;;;;;;;21.83;14.85;;;;;;;;;;5018821;28;20679;-62
2022/04/25 13:34:07;;;;;;;26.15;16.35;;;;;;;;;;5015535;28;20212;-62
2022/04/25 13:36:34;;;;;;;22.65;15.07;;;;;;;;;;5015511;28;20687;-62
2022/04/25 13:38:59;;;;;;;20.58;14.93;;;;;;;;;;5015504;28;20224;-62
2022/04/25 13:41:24;;;;;;;27.88;16.38;;;;;;;;;;5014028;28;20209;-62
2022/04/25 13:43:50;;;;;;;23.50;16.00;;;;;;;;;;5015557;28;20761;-62
2022/04/25 13:46:15;;;;;;;24.20;15.30;;;;;;;;;;5014867;28;20243;-62
2022/04/25 13:48:41;;;;;;;21.67;15.65;;;;;;;;;;5014348;28;20208;-62
2022/04/25 13:51:07;;;;;;;24.33;14.90;;;;;;;;;;5014917;28;20295;-62
2022/04/25 13:53:34;;;;;;;25.52;16.13;;;;;;;;;;5015414;28;20212;-62
2022/04/25 13:56:00;;;;;;;26.83;16.33;;;;;;;;;;5013980;28;20591;-62
2022/04/25 13:58:25;;;;;;;27.88;17.38;;;;;;;;;;4999204;28;20213;-62
2022/04/25 14:00:51;;;;;;;25.83;16.98;;;;;;;;;;4994790;28;20215;-64
2022/04/25 14:03:16;;;;;;;26.92;17.27;;;;;;;;;;4994154;28;20212;-62
2022/04/25 14:05:43;;;;;;;25.92;17.35;;;;;;;;;;4995366;28;20213;-62
2022/04/25 14:08:09;;;;;;;24.10;16.15;;;;;;;;;;4992465;28;20304;-62
2022/04/25 14:10:36;;;;;;;26.88;16.27;;;;;;;;;;4994311;28;20316;-62
2022/04/25 14:13:02;;;;;;;25.63;16.60;;;;;;;;;;4994669;28;20212;-62
2022/04/25 14:15:28;;;;;;;23.88;17.23;;;;;;;;;;4994382;28;20221;-62
2022/04/25 14:17:53;;;;;;;29.23;16.88;;;;;;;;;;4995223;28;20309;-62
2022/04/25 14:20:18;;;;;;;23.00;16.20;;;;;;;;;;4994509;28;20221;-73
2022/04/25 14:22:43;;;;;;;25.90;17.13;;;;;;;;;;4994396;28;20220;-73
2022/04/25 14:25:09;;;;;;;23.05;15.43;;;;;;;;;;4994316;28;20293;-73
2022/04/25 14:27:37;;;;;;;24.30;16.08;;;;;;;;;;4994862;28;20216;-74
2022/04/25 14:30:03;;;;;;;23.52;15.75;;;;;;;;;;4993679;28;20300;-72
2022/04/25 14:32:29;;;;;;;23.33;16.65;;;;;;;;;;4994852;28;20201;-73
2022/04/25 14:34:55;;;;;;;23.48;15.43;;;;;;;;;;4994622;28;20688;-73
2022/04/25 14:37:20;;;;;;;23.40;16.83;;;;;;;;;;4993702;28;20231;-73
2022/04/25 14:39:45;;;;;;;24.58;15.95;;;;;;;;;;4994638;28;20668;-74
2022/04/25 14:42:10;;;;;;;24.58;16.98;;;;;;;;;;4994064;28;20217;-73
2022/04/25 14:44:37;;;;;;;26.15;17.38;;;;;;;;;;4993808;28;20260;-74
2022/04/25 14:47:03;;;;;;;24.42;15.50;;;;;;;;;;4994081;28;20221;-72
2022/04/25 14:54:56;;;;;;;26.10;16.55;;;;;;;;;;4994533;28;20260;-74